This is the latest recevied weather packets stored in our database for station/object KD7MPG-3. If no packets are shown the sender has not sent any weather packets the latest 1 day(s).
| Time | Temp. | Humidity | Pressure | Rain* | Wind** | Luminosity | Snow |
|---|---|---|---|---|---|---|---|
| 1778096385 | 20.56° C | 75% | 1029.4 hPa | 0 mm | - | - | - |
| 1778094884 | 18.89° C | 82% | 1029.4 hPa | 0 mm | - | - | - |
| 1778094578 | 18.33° C | 82% | 1029.6 hPa | 0 mm | - | - | - |
| 1778093977 | 17.22° C | 81% | 1029.7 hPa | 0 mm | - | - | - |
| 1778093377 | 17.22° C | 82% | 1029.7 hPa | 0 mm | - | - | - |
| 1778092471 | 16.67° C | 84% | 1029.7 hPa | 0 mm | - | - | - |
| 1778092171 | 16.67° C | 84% | 1029.8 hPa | 0 mm | - | - | - |
| 1778090966 | 16.11° C | 83% | 1029.6 hPa | 0 mm | - | - | - |
| 1778090065 | 15° C | 86% | 1029.7 hPa | 0 mm | - | - | - |
| 1778089466 | 14.44° C | 86% | 1029.7 hPa | 0 mm | - | - | - |
| 1778088555 | 13.89° C | 87% | 1029.8 hPa | 0 mm | - | - | - |
| 1778086150 | 13.89° C | 87% | 1029.7 hPa | 0 mm | - | - | - |
| 1778085249 | 13.33° C | 88% | 1029.7 hPa | 0 mm | - | - | - |
| 1778082239 | 12.78° C | 89% | 1029.4 hPa | 0 mm | - | - | - |
| 1778080739 | 12.22° C | 89% | 1029.6 hPa | 0 mm | - | - | - |
| 1778079535 | 12.22° C | 88% | 1029.7 hPa | 0 mm | - | - | - |
| 1778079235 | 12.22° C | 88% | 1029.7 hPa | 0 mm | - | - | - |
| 1778078335 | 12.22° C | 89% | 1029.2 hPa | 0 mm | - | - | - |
| 1778078035 | 12.22° C | 89% | 1029.2 hPa | 0 mm | - | - | - |
| 1778077135 | 11.67° C | 90% | 1028.8 hPa | 0 mm | - | - | - |
| 1778075923 | 11.67° C | 90% | 1028.7 hPa | 0 mm | - | - | - |
| 1778075319 | 11.67° C | 90% | 1028.7 hPa | 0 mm | - | - | - |
| 1778074716 | 11.67° C | 90% | 1028.8 hPa | 0 mm | - | - | - |
| 1778074417 | 11.67° C | 90% | 1028.9 hPa | 0 mm | - | - | - |
| 1778073817 | 12.22° C | 89% | 1028.6 hPa | 0 mm | - | - | - |
* Rain latest hour (hover to see other rain measurements)
** Current wind speed in m/s (hover to see current wind gust speed)